createdAt,value
2019-02-16T00:01:25.086Z,50.50
2019-02-16T00:03:55.099Z,50.40
2019-02-16T00:06:25.497Z,50.30
2019-02-16T00:08:55.589Z,50.60
2019-02-16T00:11:25.634Z,50.50
2019-02-16T00:13:55.619Z,50.60
2019-02-16T00:16:25.613Z,50.60
2019-02-16T00:18:55.587Z,50.40
2019-02-16T00:21:25.687Z,50.30
2019-02-16T00:23:55.646Z,50.20
2019-02-16T00:26:25.753Z,50.30
2019-02-16T00:28:56.103Z,50.30
2019-02-16T00:31:26.479Z,50.20
2019-02-16T00:33:56.475Z,50.20
2019-02-16T00:36:26.481Z,50.30
2019-02-16T00:38:56.827Z,50.30
2019-02-16T00:41:26.875Z,50.20
2019-02-16T00:43:56.864Z,50.00
2019-02-16T00:46:26.940Z,50.00
2019-02-16T00:48:56.987Z,50.10
2019-02-16T00:51:27.390Z,50.10
2019-02-16T00:53:58.232Z,50.10
2019-02-16T00:56:28.223Z,50.10
2019-02-16T00:58:58.283Z,50.00
2019-02-16T01:01:28.259Z,50.00
2019-02-16T01:03:58.528Z,50.00
2019-02-16T01:06:28.520Z,49.90
2019-02-16T01:08:58.723Z,50.10
2019-02-16T01:11:28.826Z,50.00
2019-02-16T01:13:59.094Z,50.00
2019-02-16T01:16:29.095Z,50.10
2019-02-16T01:18:59.253Z,49.70
2019-02-16T01:21:29.354Z,50.20
2019-02-16T01:23:59.363Z,50.00
2019-02-16T01:26:29.383Z,49.90
2019-02-16T01:28:59.374Z,49.50
2019-02-16T01:31:29.416Z,50.00
2019-02-16T01:33:59.318Z,50.10
2019-02-16T01:36:29.392Z,50.00
2019-02-16T01:38:59.694Z,50.20
2019-02-16T01:41:29.691Z,50.10
2019-02-16T01:43:59.661Z,50.30
2019-02-16T01:46:29.767Z,50.60
2019-02-16T01:48:59.766Z,50.30
2019-02-16T01:51:31.809Z,50.40
2019-02-16T01:54:01.638Z,50.40
2019-02-16T01:56:31.639Z,50.60
2019-02-16T01:59:01.780Z,50.60
2019-02-16T02:01:31.845Z,50.50
2019-02-16T02:04:02.634Z,50.40
2019-02-16T02:06:32.768Z,50.50
2019-02-16T02:09:02.834Z,50.60
2019-02-16T02:11:33.640Z,50.70
2019-02-16T02:14:03.717Z,50.70
2019-02-16T02:16:33.838Z,50.80
2019-02-16T02:19:03.916Z,50.50
2019-02-16T02:21:40.982Z,50.50
2019-02-16T02:24:05.943Z,50.50
2019-02-16T02:26:35.986Z,50.80
2019-02-16T02:29:05.990Z,50.70
2019-02-16T02:31:37.504Z,50.50
2019-02-16T02:34:07.692Z,50.40
2019-02-16T02:36:37.726Z,50.60
2019-02-16T02:39:07.862Z,50.70
2019-02-16T02:41:37.863Z,50.80
2019-02-16T02:44:07.986Z,51.00
2019-02-16T02:46:37.997Z,50.90
2019-02-16T02:49:07.995Z,50.60
2019-02-16T02:51:38.026Z,50.80
2019-02-16T02:54:08.332Z,50.90
2019-02-16T02:56:38.455Z,51.00
2019-02-16T02:59:08.644Z,50.90
2019-02-16T03:01:38.742Z,50.80
2019-02-16T03:04:08.833Z,50.90
2019-02-16T03:06:39.117Z,50.80
2019-02-16T03:09:09.099Z,51.30
2019-02-16T03:11:39.205Z,51.00
2019-02-16T03:14:09.340Z,51.00
2019-02-16T03:16:39.356Z,51.00
2019-02-16T03:19:10.409Z,51.00
2019-02-16T03:21:40.447Z,51.00
2019-02-16T03:24:10.545Z,50.90
2019-02-16T03:27:13.644Z,50.90
2019-02-16T03:30:45.891Z,51.10
2019-02-16T03:33:34.329Z,51.10
2019-02-16T03:36:27.240Z,51.30
2019-02-16T03:39:05.489Z,51.10
2019-02-16T03:41:35.480Z,51.30
2019-02-16T03:44:05.599Z,51.10
2019-02-16T03:46:35.783Z,51.10
2019-02-16T03:49:06.096Z,51.10
2019-02-16T03:51:36.090Z,51.20
2019-02-16T03:54:06.117Z,51.10
2019-02-16T03:56:36.352Z,51.00
2019-02-16T03:59:06.382Z,51.10
2019-02-16T04:01:36.475Z,51.10
2019-02-16T04:04:06.499Z,51.30
2019-02-16T04:06:36.606Z,51.50
2019-02-16T04:09:07.273Z,51.30
2019-02-16T04:11:37.270Z,51.30
2019-02-16T04:14:07.388Z,51.50
2019-02-16T04:16:37.680Z,51.40
2019-02-16T04:19:08.669Z,51.20
2019-02-16T04:21:38.689Z,51.10
2019-02-16T04:24:08.791Z,51.20
2019-02-16T04:26:40.571Z,51.30
2019-02-16T04:29:10.609Z,51.30
2019-02-16T04:31:40.645Z,51.20
2019-02-16T04:34:10.676Z,51.30
2019-02-16T04:36:40.953Z,51.10
2019-02-16T04:39:11.021Z,51.30
2019-02-16T04:41:41.658Z,51.20
2019-02-16T04:44:11.773Z,51.20
2019-02-16T04:46:41.777Z,51.30
2019-02-16T04:49:11.769Z,51.30
2019-02-16T04:51:41.930Z,51.50
2019-02-16T04:54:11.920Z,51.40
2019-02-16T04:56:42.043Z,51.50
2019-02-16T04:59:13.025Z,51.30
2019-02-16T05:01:43.118Z,51.40
2019-02-16T05:04:13.081Z,51.40
2019-02-16T05:06:43.171Z,51.50
2019-02-16T05:09:13.161Z,51.20
2019-02-16T05:11:43.178Z,51.20
2019-02-16T05:14:13.256Z,51.40
2019-02-16T05:16:43.544Z,51.40
2019-02-16T05:19:13.564Z,51.40
2019-02-16T05:21:43.649Z,51.40
2019-02-16T05:24:13.636Z,51.40
2019-02-16T05:26:43.657Z,51.40
2019-02-16T05:29:13.701Z,51.20
2019-02-16T05:31:43.733Z,51.10
2019-02-16T05:34:14.088Z,51.20
2019-02-16T05:36:44.403Z,51.10
2019-02-16T05:39:14.530Z,51.30
2019-02-16T05:41:44.912Z,51.30
2019-02-16T05:44:14.960Z,51.20
2019-02-16T05:46:44.981Z,51.10
2019-02-16T05:49:15.270Z,51.20
2019-02-16T05:51:45.380Z,51.20
2019-02-16T05:54:15.439Z,51.30
2019-02-16T05:56:45.756Z,51.30
2019-02-16T05:59:15.757Z,51.40
2019-02-16T06:01:53.603Z,51.20
2019-02-16T06:04:17.738Z,51.20
2019-02-16T06:06:47.741Z,51.20
2019-02-16T06:09:17.845Z,51.30
2019-02-16T06:11:47.838Z,51.30
2019-02-16T06:14:18.203Z,51.40
2019-02-16T06:16:48.210Z,51.20
2019-02-16T06:19:18.226Z,51.20
2019-02-16T06:21:49.009Z,51.10
2019-02-16T06:24:19.043Z,51.20
2019-02-16T06:26:49.399Z,51.20
2019-02-16T06:29:20.478Z,51.20
2019-02-16T06:31:50.779Z,51.20
2019-02-16T06:34:20.779Z,51.30
2019-02-16T06:36:50.889Z,51.30
2019-02-16T06:39:20.914Z,51.40
2019-02-16T06:41:50.944Z,51.60
2019-02-16T06:44:21.257Z,51.60
2019-02-16T06:46:51.246Z,51.70
2019-02-16T06:49:21.640Z,51.70
2019-02-16T06:51:51.634Z,51.70
2019-02-16T06:54:21.722Z,51.80
2019-02-16T06:57:26.134Z,51.90
2019-02-16T06:59:56.889Z,52.00
2019-02-16T07:02:29.943Z,52.70
2019-02-16T07:05:00.606Z,52.20
2019-02-16T07:07:30.687Z,52.30
2019-02-16T07:10:00.690Z,52.40
2019-02-16T07:12:30.784Z,52.30
2019-02-16T07:15:00.786Z,52.30
2019-02-16T07:17:44.803Z,52.40
2019-02-16T07:20:15.825Z,52.60
2019-02-16T07:22:45.824Z,52.70
2019-02-16T07:25:15.938Z,52.90
2019-02-16T07:27:46.130Z,52.90
2019-02-16T07:30:16.114Z,53.20
2019-02-16T07:32:46.118Z,53.20
2019-02-16T07:35:16.328Z,53.30
2019-02-16T07:37:46.419Z,53.50
2019-02-16T07:40:16.496Z,53.40
2019-02-16T07:42:54.602Z,53.50
2019-02-16T07:45:48.756Z,53.70
2019-02-16T07:48:34.256Z,53.90
2019-02-16T07:51:14.432Z,53.70
2019-02-16T07:53:54.617Z,53.80
2019-02-16T07:56:29.227Z,53.80
2019-02-16T07:59:18.551Z,53.80
2019-02-16T08:02:10.377Z,53.60
2019-02-16T08:04:46.660Z,53.60
2019-02-16T08:07:30.463Z,53.60
2019-02-16T08:10:12.908Z,53.70
2019-02-16T08:13:01.980Z,53.40
2019-02-16T08:15:51.120Z,53.50
2019-02-16T08:18:30.294Z,53.00
2019-02-16T08:21:19.040Z,53.00
2019-02-16T08:24:01.206Z,52.90
2019-02-16T08:26:41.571Z,52.80
2019-02-16T08:29:20.748Z,53.00
2019-02-16T08:31:57.068Z,53.00
2019-02-16T08:34:43.772Z,52.90
2019-02-16T08:37:25.407Z,53.00
2019-02-16T08:40:10.034Z,52.70
2019-02-16T08:42:58.032Z,52.70
2019-02-16T08:46:02.347Z,52.60
2019-02-16T08:48:55.749Z,52.30
2019-02-16T08:51:47.964Z,51.90
2019-02-16T08:54:49.295Z,52.00
2019-02-16T08:57:29.207Z,51.90
2019-02-16T09:00:24.237Z,51.90
2019-02-16T09:03:20.615Z,51.90
2019-02-16T09:05:55.916Z,51.60
2019-02-16T09:08:41.380Z,51.50
2019-02-16T09:11:42.815Z,51.60
2019-02-16T09:14:29.184Z,52.20
2019-02-16T09:17:18.497Z,51.00
2019-02-16T09:20:03.750Z,51.60
2019-02-16T09:23:00.801Z,50.30
2019-02-16T09:25:50.165Z,51.00
2019-02-16T09:28:42.232Z,50.30
2019-02-16T09:31:32.197Z,50.10
2019-02-16T09:34:12.583Z,50.50
2019-02-16T09:36:53.001Z,54.30
2019-02-16T09:39:40.907Z,53.80
2019-02-16T09:42:45.351Z,54.30
2019-02-16T09:45:32.152Z,53.20
